Romona, Indiana
Current Conditions -  °F | °C
As of 8:53 AM on Monday 26 Jan 2015 (Local Time) from KBMG Reporting Station
Overcast Overcast  
Wind Chill: 16°   Ceiling: 1700
Heat Index: 24°   Visibility: 10mi
Dew Point: 18°   Wind: 7mph
Humidity: 77%   Direction: 350°N
Pressure: 29.95"   Gusts: NA
Location:  39.3008°N, 86.8112°W
Report Text: KBMG 261353Z 35006KT 10SM BKN017 OVC026 M04/M08 A2995 RMK AO2 SLP150 T10441078
Loading
Personal Weather Stations






























Interactive Weather Map New forecast layout! Learn more

10-Day Weather Forecast

Advertisements
Track Severe Weather on mobile